sensor_id;sensor_type;location;lat;lon;timestamp;P1;durP1;ratioP1;P2;durP2;ratioP2
44102;SDS011;29769;42.178;24.742;2023-02-05T00:01:02;1.65;;;1.33;;
44102;SDS011;29769;42.178;24.742;2023-02-05T00:03:46;1.50;;;1.38;;
44102;SDS011;29769;42.178;24.742;2023-02-05T00:06:32;1.60;;;1.50;;
44102;SDS011;29769;42.178;24.742;2023-02-05T00:09:17;1.55;;;1.27;;
44102;SDS011;29769;42.178;24.742;2023-02-05T00:12:02;1.63;;;1.52;;
44102;SDS011;29769;42.178;24.742;2023-02-05T00:14:47;4.43;;;1.52;;
44102;SDS011;29769;42.178;24.742;2023-02-05T00:17:33;1.10;;;1.10;;
44102;SDS011;29769;42.178;24.742;2023-02-05T00:20:19;3.33;;;1.33;;
44102;SDS011;29769;42.178;24.742;2023-02-05T00:23:04;1.75;;;1.42;;
44102;SDS011;29769;42.178;24.742;2023-02-05T00:25:49;3.25;;;1.80;;
44102;SDS011;29769;42.178;24.742;2023-02-05T00:28:35;1.52;;;1.35;;
44102;SDS011;29769;42.178;24.742;2023-02-05T00:31:20;1.33;;;1.23;;
44102;SDS011;29769;42.178;24.742;2023-02-05T00:34:06;1.30;;;1.20;;
44102;SDS011;29769;42.178;24.742;2023-02-05T00:36:51;1.23;;;1.13;;
44102;SDS011;29769;42.178;24.742;2023-02-05T00:39:36;2.30;;;1.23;;
44102;SDS011;29769;42.178;24.742;2023-02-05T00:42:21;2.65;;;1.58;;
44102;SDS011;29769;42.178;24.742;2023-02-05T00:45:06;2.28;;;1.23;;
44102;SDS011;29769;42.178;24.742;2023-02-05T00:47:51;2.03;;;1.50;;
44102;SDS011;29769;42.178;24.742;2023-02-05T00:50:36;2.25;;;1.48;;
44102;SDS011;29769;42.178;24.742;2023-02-05T00:53:22;1.35;;;1.10;;
44102;SDS011;29769;42.178;24.742;2023-02-05T00:56:08;1.45;;;1.35;;
44102;SDS011;29769;42.178;24.742;2023-02-05T00:58:53;2.10;;;1.65;;
44102;SDS011;29769;42.178;24.742;2023-02-05T01:01:38;5.90;;;1.20;;
44102;SDS011;29769;42.178;24.742;2023-02-05T01:04:22;1.77;;;1.40;;
44102;SDS011;29769;42.178;24.742;2023-02-05T01:07:07;1.88;;;1.60;;
44102;SDS011;29769;42.178;24.742;2023-02-05T01:09:52;1.50;;;1.40;;
44102;SDS011;29769;42.178;24.742;2023-02-05T01:12:37;2.03;;;1.08;;
44102;SDS011;29769;42.178;24.742;2023-02-05T01:18:07;1.55;;;1.45;;
44102;SDS011;29769;42.178;24.742;2023-02-05T01:20:52;1.40;;;1.30;;
44102;SDS011;29769;42.178;24.742;2023-02-05T01:23:37;1.60;;;1.50;;
44102;SDS011;29769;42.178;24.742;2023-02-05T01:26:22;1.50;;;1.40;;
44102;SDS011;29769;42.178;24.742;2023-02-05T01:29:07;1.42;;;1.30;;
44102;SDS011;29769;42.178;24.742;2023-02-05T01:31:52;4.25;;;1.40;;
44102;SDS011;29769;42.178;24.742;2023-02-05T01:34:37;1.73;;;1.48;;
44102;SDS011;29769;42.178;24.742;2023-02-05T01:37:23;1.92;;;1.60;;
44102;SDS011;29769;42.178;24.742;2023-02-05T01:40:08;10.05;;;1.52;;
44102;SDS011;29769;42.178;24.742;2023-02-05T01:42:59;4.82;;;1.75;;
44102;SDS011;29769;42.178;24.742;2023-02-05T01:48:41;1.40;;;1.30;;
44102;SDS011;29769;42.178;24.742;2023-02-05T01:51:29;2.00;;;1.67;;
44102;SDS011;29769;42.178;24.742;2023-02-05T01:54:17;2.28;;;1.58;;
44102;SDS011;29769;42.178;24.742;2023-02-05T01:57:06;1.75;;;1.50;;
44102;SDS011;29769;42.178;24.742;2023-02-05T01:59:54;2.40;;;1.50;;
44102;SDS011;29769;42.178;24.742;2023-02-05T02:02:40;2.17;;;1.75;;
44102;SDS011;29769;42.178;24.742;2023-02-05T02:05:25;1.88;;;1.75;;
44102;SDS011;29769;42.178;24.742;2023-02-05T02:08:11;1.63;;;1.52;;
44102;SDS011;29769;42.178;24.742;2023-02-05T02:10:57;1.85;;;1.63;;
44102;SDS011;29769;42.178;24.742;2023-02-05T02:13:44;2.20;;;1.38;;
44102;SDS011;29769;42.178;24.742;2023-02-05T02:16:32;2.03;;;1.73;;
44102;SDS011;29769;42.178;24.742;2023-02-05T02:19:27;1.83;;;1.65;;
44102;SDS011;29769;42.178;24.742;2023-02-05T02:25:31;2.00;;;1.63;;
44102;SDS011;29769;42.178;24.742;2023-02-05T02:28:42;2.30;;;1.85;;
44102;SDS011;29769;42.178;24.742;2023-02-05T02:31:34;2.40;;;1.83;;
44102;SDS011;29769;42.178;24.742;2023-02-05T02:38:17;2.25;;;2.00;;
44102;SDS011;29769;42.178;24.742;2023-02-05T02:41:13;2.10;;;1.90;;
44102;SDS011;29769;42.178;24.742;2023-02-05T02:44:39;4.13;;;2.28;;
44102;SDS011;29769;42.178;24.742;2023-02-05T02:47:20;5.30;;;2.67;;
44102;SDS011;29769;42.178;24.742;2023-02-05T02:50:10;3.58;;;2.42;;
44102;SDS011;29769;42.178;24.742;2023-02-05T02:53:09;12.90;;;2.63;;
44102;SDS011;29769;42.178;24.742;2023-02-05T02:56:00;3.03;;;2.70;;
44102;SDS011;29769;42.178;24.742;2023-02-05T02:58:52;4.10;;;3.13;;
44102;SDS011;29769;42.178;24.742;2023-02-05T03:01:41;16.17;;;3.65;;
44102;SDS011;29769;42.178;24.742;2023-02-05T03:04:33;5.25;;;2.70;;
44102;SDS011;29769;42.178;24.742;2023-02-05T03:07:24;2.75;;;2.47;;
44102;SDS011;29769;42.178;24.742;2023-02-05T03:13:12;3.50;;;3.20;;
44102;SDS011;29769;42.178;24.742;2023-02-05T03:16:02;8.13;;;4.05;;
44102;SDS011;29769;42.178;24.742;2023-02-05T03:18:47;5.28;;;3.28;;
44102;SDS011;29769;42.178;24.742;2023-02-05T03:21:34;4.22;;;3.50;;
44102;SDS011;29769;42.178;24.742;2023-02-05T03:24:24;3.92;;;3.38;;
44102;SDS011;29769;42.178;24.742;2023-02-05T03:27:09;4.75;;;3.85;;
44102;SDS011;29769;42.178;24.742;2023-02-05T03:29:54;6.03;;;3.50;;
44102;SDS011;29769;42.178;24.742;2023-02-05T03:35:46;5.80;;;3.88;;
44102;SDS011;29769;42.178;24.742;2023-02-05T03:39:02;11.35;;;4.13;;
44102;SDS011;29769;42.178;24.742;2023-02-05T03:42:09;6.18;;;4.30;;
44102;SDS011;29769;42.178;24.742;2023-02-05T03:54:35;8.95;;;5.40;;
44102;SDS011;29769;42.178;24.742;2023-02-05T03:57:37;7.00;;;4.93;;
44102;SDS011;29769;42.178;24.742;2023-02-05T04:00:28;5.80;;;4.20;;
44102;SDS011;29769;42.178;24.742;2023-02-05T04:03:14;5.85;;;4.90;;
44102;SDS011;29769;42.178;24.742;2023-02-05T04:06:00;8.23;;;4.75;;
44102;SDS011;29769;42.178;24.742;2023-02-05T04:08:44;6.10;;;4.78;;
44102;SDS011;29769;42.178;24.742;2023-02-05T04:11:29;5.00;;;3.78;;
44102;SDS011;29769;42.178;24.742;2023-02-05T04:14:17;8.23;;;4.85;;
44102;SDS011;29769;42.178;24.742;2023-02-05T04:17:03;6.40;;;4.68;;
44102;SDS011;29769;42.178;24.742;2023-02-05T04:19:48;6.38;;;4.60;;
44102;SDS011;29769;42.178;24.742;2023-02-05T04:22:35;6.18;;;4.07;;
44102;SDS011;29769;42.178;24.742;2023-02-05T04:25:20;5.60;;;4.50;;
44102;SDS011;29769;42.178;24.742;2023-02-05T04:28:08;6.13;;;4.60;;
44102;SDS011;29769;42.178;24.742;2023-02-05T04:30:56;7.72;;;4.57;;
44102;SDS011;29769;42.178;24.742;2023-02-05T04:33:40;9.52;;;5.57;;
44102;SDS011;29769;42.178;24.742;2023-02-05T04:36:27;5.90;;;5.30;;
44102;SDS011;29769;42.178;24.742;2023-02-05T04:41:58;7.07;;;4.95;;
44102;SDS011;29769;42.178;24.742;2023-02-05T04:44:45;6.63;;;4.85;;
44102;SDS011;29769;42.178;24.742;2023-02-05T04:47:30;7.07;;;5.43;;
44102;SDS011;29769;42.178;24.742;2023-02-05T04:53:01;8.75;;;6.40;;
44102;SDS011;29769;42.178;24.742;2023-02-05T04:55:46;7.15;;;5.40;;
44102;SDS011;29769;42.178;24.742;2023-02-05T04:58:31;5.22;;;4.50;;
44102;SDS011;29769;42.178;24.742;2023-02-05T05:01:17;6.63;;;5.60;;
44102;SDS011;29769;42.178;24.742;2023-02-05T05:04:03;7.00;;;5.13;;
44102;SDS011;29769;42.178;24.742;2023-02-05T05:06:48;8.77;;;5.38;;
44102;SDS011;29769;42.178;24.742;2023-02-05T05:09:32;6.25;;;5.00;;
44102;SDS011;29769;42.178;24.742;2023-02-05T05:12:17;7.07;;;5.35;;
44102;SDS011;29769;42.178;24.742;2023-02-05T05:15:03;5.80;;;4.50;;
44102;SDS011;29769;42.178;24.742;2023-02-05T05:17:49;5.90;;;4.60;;
44102;SDS011;29769;42.178;24.742;2023-02-05T05:20:33;4.95;;;3.63;;
44102;SDS011;29769;42.178;24.742;2023-02-05T05:23:18;7.28;;;4.10;;
44102;SDS011;29769;42.178;24.742;2023-02-05T05:26:04;4.55;;;3.70;;
44102;SDS011;29769;42.178;24.742;2023-02-05T05:28:54;4.28;;;3.50;;
44102;SDS011;29769;42.178;24.742;2023-02-05T05:31:39;3.67;;;3.08;;
44102;SDS011;29769;42.178;24.742;2023-02-05T05:34:24;6.03;;;3.80;;
44102;SDS011;29769;42.178;24.742;2023-02-05T05:37:09;4.45;;;3.70;;
44102;SDS011;29769;42.178;24.742;2023-02-05T05:39:54;2.95;;;2.65;;
44102;SDS011;29769;42.178;24.742;2023-02-05T05:42:58;4.55;;;3.55;;
44102;SDS011;29769;42.178;24.742;2023-02-05T05:46:02;3.03;;;2.70;;
44102;SDS011;29769;42.178;24.742;2023-02-05T05:48:52;6.65;;;2.90;;
44102;SDS011;29769;42.178;24.742;2023-02-05T05:51:38;4.85;;;3.50;;
44102;SDS011;29769;42.178;24.742;2023-02-05T05:54:23;7.28;;;3.25;;
44102;SDS011;29769;42.178;24.742;2023-02-05T05:57:08;10.82;;;2.85;;
44102;SDS011;29769;42.178;24.742;2023-02-05T05:59:53;3.15;;;2.40;;
44102;SDS011;29769;42.178;24.742;2023-02-05T06:02:38;3.58;;;2.90;;
44102;SDS011;29769;42.178;24.742;2023-02-05T06:05:24;4.00;;;2.90;;
44102;SDS011;29769;42.178;24.742;2023-02-05T06:08:09;4.03;;;2.92;;
44102;SDS011;29769;42.178;24.742;2023-02-05T06:10:54;3.20;;;2.42;;
44102;SDS011;29769;42.178;24.742;2023-02-05T06:13:39;3.58;;;2.60;;
44102;SDS011;29769;42.178;24.742;2023-02-05T06:16:25;3.65;;;3.10;;
44102;SDS011;29769;42.178;24.742;2023-02-05T06:19:09;3.78;;;3.30;;
44102;SDS011;29769;42.178;24.742;2023-02-05T06:21:55;3.05;;;2.60;;
44102;SDS011;29769;42.178;24.742;2023-02-05T06:24:39;4.40;;;3.35;;
44102;SDS011;29769;42.178;24.742;2023-02-05T06:27:24;3.85;;;2.78;;
44102;SDS011;29769;42.178;24.742;2023-02-05T06:30:10;4.60;;;3.42;;
44102;SDS011;29769;42.178;24.742;2023-02-05T06:32:55;5.82;;;3.40;;
44102;SDS011;29769;42.178;24.742;2023-02-05T06:35:40;3.58;;;3.25;;
44102;SDS011;29769;42.178;24.742;2023-02-05T06:38:25;4.28;;;3.50;;
44102;SDS011;29769;42.178;24.742;2023-02-05T06:41:10;5.00;;;3.47;;
44102;SDS011;29769;42.178;24.742;2023-02-05T06:43:55;6.05;;;3.70;;
44102;SDS011;29769;42.178;24.742;2023-02-05T06:46:40;5.60;;;3.92;;
44102;SDS011;29769;42.178;24.742;2023-02-05T06:49:25;3.90;;;3.08;;
44102;SDS011;29769;42.178;24.742;2023-02-05T06:52:10;9.02;;;5.15;;
44102;SDS011;29769;42.178;24.742;2023-02-05T06:54:54;6.22;;;3.80;;
44102;SDS011;29769;42.178;24.742;2023-02-05T06:57:39;10.40;;;4.15;;
44102;SDS011;29769;42.178;24.742;2023-02-05T07:00:24;5.32;;;3.88;;
44102;SDS011;29769;42.178;24.742;2023-02-05T07:03:09;6.68;;;4.53;;
44102;SDS011;29769;42.178;24.742;2023-02-05T07:05:54;7.15;;;5.00;;
44102;SDS011;29769;42.178;24.742;2023-02-05T07:08:39;6.75;;;4.40;;
44102;SDS011;29769;42.178;24.742;2023-02-05T07:11:24;6.03;;;3.53;;
44102;SDS011;29769;42.178;24.742;2023-02-05T07:14:09;8.35;;;3.97;;
44102;SDS011;29769;42.178;24.742;2023-02-05T07:16:54;10.40;;;4.40;;
44102;SDS011;29769;42.178;24.742;2023-02-05T07:19:39;3.92;;;3.15;;
44102;SDS011;29769;42.178;24.742;2023-02-05T07:22:24;6.30;;;3.83;;
44102;SDS011;29769;42.178;24.742;2023-02-05T07:25:09;11.88;;;6.63;;
44102;SDS011;29769;42.178;24.742;2023-02-05T07:27:53;9.68;;;6.07;;
44102;SDS011;29769;42.178;24.742;2023-02-05T07:30:38;5.63;;;4.15;;
44102;SDS011;29769;42.178;24.742;2023-02-05T07:33:23;5.90;;;4.10;;
44102;SDS011;29769;42.178;24.742;2023-02-05T07:36:09;4.78;;;3.28;;
44102;SDS011;29769;42.178;24.742;2023-02-05T07:38:55;7.65;;;4.57;;
44102;SDS011;29769;42.178;24.742;2023-02-05T07:41:40;7.28;;;4.35;;
44102;SDS011;29769;42.178;24.742;2023-02-05T07:44:31;6.82;;;4.40;;
44102;SDS011;29769;42.178;24.742;2023-02-05T07:47:16;8.60;;;4.72;;
44102;SDS011;29769;42.178;24.742;2023-02-05T07:50:02;6.30;;;4.97;;
44102;SDS011;29769;42.178;24.742;2023-02-05T07:52:48;6.40;;;4.32;;
44102;SDS011;29769;42.178;24.742;2023-02-05T07:55:33;4.78;;;3.63;;
44102;SDS011;29769;42.178;24.742;2023-02-05T07:58:18;7.90;;;3.53;;
44102;SDS011;29769;42.178;24.742;2023-02-05T08:01:04;7.82;;;4.25;;
44102;SDS011;29769;42.178;24.742;2023-02-05T08:03:49;9.05;;;4.80;;
44102;SDS011;29769;42.178;24.742;2023-02-05T08:06:34;6.35;;;4.38;;
44102;SDS011;29769;42.178;24.742;2023-02-05T08:09:18;10.50;;;4.72;;
44102;SDS011;29769;42.178;24.742;2023-02-05T08:12:04;8.32;;;4.55;;
44102;SDS011;29769;42.178;24.742;2023-02-05T08:14:49;4.50;;;3.60;;
44102;SDS011;29769;42.178;24.742;2023-02-05T08:17:36;6.45;;;4.07;;
44102;SDS011;29769;42.178;24.742;2023-02-05T08:20:20;6.47;;;3.83;;
44102;SDS011;29769;42.178;24.742;2023-02-05T08:23:05;5.15;;;2.88;;
44102;SDS011;29769;42.178;24.742;2023-02-05T08:25:54;3.47;;;3.17;;
44102;SDS011;29769;42.178;24.742;2023-02-05T08:28:39;4.97;;;3.40;;
44102;SDS011;29769;42.178;24.742;2023-02-05T08:31:24;5.68;;;3.20;;
44102;SDS011;29769;42.178;24.742;2023-02-05T08:34:10;3.67;;;2.95;;
44102;SDS011;29769;42.178;24.742;2023-02-05T08:36:54;4.30;;;3.30;;
44102;SDS011;29769;42.178;24.742;2023-02-05T08:39:41;3.67;;;3.28;;
44102;SDS011;29769;42.178;24.742;2023-02-05T08:42:26;9.20;;;3.47;;
44102;SDS011;29769;42.178;24.742;2023-02-05T08:45:10;4.82;;;3.00;;
44102;SDS011;29769;42.178;24.742;2023-02-05T08:47:55;5.15;;;3.45;;
44102;SDS011;29769;42.178;24.742;2023-02-05T08:50:43;3.42;;;3.00;;
44102;SDS011;29769;42.178;24.742;2023-02-05T08:53:32;4.80;;;3.03;;
44102;SDS011;29769;42.178;24.742;2023-02-05T08:56:17;6.15;;;3.40;;
44102;SDS011;29769;42.178;24.742;2023-02-05T08:59:02;4.63;;;3.42;;
44102;SDS011;29769;42.178;24.742;2023-02-05T09:01:47;5.18;;;3.35;;
44102;SDS011;29769;42.178;24.742;2023-02-05T09:07:17;5.30;;;4.00;;
44102;SDS011;29769;42.178;24.742;2023-02-05T09:10:01;5.70;;;3.95;;
44102;SDS011;29769;42.178;24.742;2023-02-05T09:12:46;3.95;;;3.20;;
44102;SDS011;29769;42.178;24.742;2023-02-05T09:15:31;7.10;;;3.28;;
44102;SDS011;29769;42.178;24.742;2023-02-05T09:18:16;4.82;;;2.97;;
44102;SDS011;29769;42.178;24.742;2023-02-05T09:21:04;4.63;;;3.47;;
44102;SDS011;29769;42.178;24.742;2023-02-05T09:23:51;4.05;;;2.90;;
44102;SDS011;29769;42.178;24.742;2023-02-05T09:26:37;4.10;;;3.03;;
44102;SDS011;29769;42.178;24.742;2023-02-05T09:29:22;4.93;;;2.60;;
44102;SDS011;29769;42.178;24.742;2023-02-05T09:32:07;2.75;;;2.40;;
44102;SDS011;29769;42.178;24.742;2023-02-05T09:37:36;4.75;;;2.60;;
44102;SDS011;29769;42.178;24.742;2023-02-05T09:40:23;3.50;;;2.88;;
44102;SDS011;29769;42.178;24.742;2023-02-05T09:43:23;3.38;;;2.65;;
44102;SDS011;29769;42.178;24.742;2023-02-05T09:46:11;4.20;;;2.78;;
44102;SDS011;29769;42.178;24.742;2023-02-05T09:51:49;4.20;;;3.10;;
44102;SDS011;29769;42.178;24.742;2023-02-05T09:54:40;4.68;;;2.83;;
44102;SDS011;29769;42.178;24.742;2023-02-05T09:57:35;3.40;;;2.90;;
44102;SDS011;29769;42.178;24.742;2023-02-05T10:00:29;5.85;;;3.42;;
44102;SDS011;29769;42.178;24.742;2023-02-05T10:06:13;3.97;;;3.15;;
44102;SDS011;29769;42.178;24.742;2023-02-05T10:19:23;7.53;;;4.40;;
44102;SDS011;29769;42.178;24.742;2023-02-05T10:28:50;8.98;;;4.30;;
44102;SDS011;29769;42.178;24.742;2023-02-05T10:34:48;5.03;;;3.50;;
44102;SDS011;29769;42.178;24.742;2023-02-05T10:37:57;4.43;;;3.22;;
44102;SDS011;29769;42.178;24.742;2023-02-05T10:40:42;3.40;;;3.10;;
44102;SDS011;29769;42.178;24.742;2023-02-05T10:46:25;12.30;;;3.90;;
44102;SDS011;29769;42.178;24.742;2023-02-05T10:49:25;4.47;;;3.13;;
44102;SDS011;29769;42.178;24.742;2023-02-05T10:52:19;4.22;;;2.88;;
44102;SDS011;29769;42.178;24.742;2023-02-05T10:57:49;3.83;;;3.10;;
44102;SDS011;29769;42.178;24.742;2023-02-05T11:03:19;9.10;;;3.40;;
44102;SDS011;29769;42.178;24.742;2023-02-05T11:06:07;10.85;;;3.63;;
44102;SDS011;29769;42.178;24.742;2023-02-05T11:08:53;5.95;;;4.10;;
44102;SDS011;29769;42.178;24.742;2023-02-05T11:11:38;6.90;;;3.47;;
44102;SDS011;29769;42.178;24.742;2023-02-05T11:20:07;3.60;;;2.75;;
44102;SDS011;29769;42.178;24.742;2023-02-05T11:26:00;7.90;;;3.17;;
44102;SDS011;29769;42.178;24.742;2023-02-05T11:28:52;4.63;;;2.80;;
44102;SDS011;29769;42.178;24.742;2023-02-05T11:31:37;4.93;;;2.80;;
44102;SDS011;29769;42.178;24.742;2023-02-05T11:34:22;48.22;;;5.15;;
44102;SDS011;29769;42.178;24.742;2023-02-05T11:37:09;7.32;;;2.72;;
44102;SDS011;29769;42.178;24.742;2023-02-05T11:40:00;1.52;;;1.30;;
44102;SDS011;29769;42.178;24.742;2023-02-05T11:42:47;1.95;;;1.65;;
44102;SDS011;29769;42.178;24.742;2023-02-05T11:45:46;2.00;;;1.50;;
44102;SDS011;29769;42.178;24.742;2023-02-05T11:51:27;1.77;;;1.65;;
44102;SDS011;29769;42.178;24.742;2023-02-05T11:54:19;1.73;;;1.63;;
44102;SDS011;29769;42.178;24.742;2023-02-05T12:03:04;1.90;;;1.70;;
44102;SDS011;29769;42.178;24.742;2023-02-05T12:06:10;1.70;;;1.43;;
44102;SDS011;29769;42.178;24.742;2023-02-05T12:09:01;6.78;;;3.40;;
44102;SDS011;29769;42.178;24.742;2023-02-05T12:11:50;2.63;;;2.03;;
44102;SDS011;29769;42.178;24.742;2023-02-05T12:24:03;2.95;;;1.90;;
44102;SDS011;29769;42.178;24.742;2023-02-05T12:33:20;1.65;;;1.50;;
44102;SDS011;29769;42.178;24.742;2023-02-05T12:36:16;2.00;;;1.80;;
44102;SDS011;29769;42.178;24.742;2023-02-05T12:39:20;1.67;;;1.58;;
44102;SDS011;29769;42.178;24.742;2023-02-05T12:42:39;3.63;;;1.17;;
44102;SDS011;29769;42.178;24.742;2023-02-05T12:45:46;2.17;;;1.67;;
44102;SDS011;29769;42.178;24.742;2023-02-05T12:51:56;2.58;;;1.80;;
44102;SDS011;29769;42.178;24.742;2023-02-05T12:54:49;1.65;;;1.33;;
44102;SDS011;29769;42.178;24.742;2023-02-05T12:57:45;4.45;;;2.28;;
44102;SDS011;29769;42.178;24.742;2023-02-05T13:03:26;3.95;;;1.58;;
44102;SDS011;29769;42.178;24.742;2023-02-05T13:06:20;3.40;;;2.22;;
44102;SDS011;29769;42.178;24.742;2023-02-05T13:09:14;3.50;;;2.47;;
44102;SDS011;29769;42.178;24.742;2023-02-05T13:12:09;2.50;;;1.73;;
44102;SDS011;29769;42.178;24.742;2023-02-05T13:17:53;7.75;;;1.95;;
44102;SDS011;29769;42.178;24.742;2023-02-05T13:20:43;2.72;;;2.00;;
44102;SDS011;29769;42.178;24.742;2023-02-05T13:23:51;2.92;;;1.73;;
44102;SDS011;29769;42.178;24.742;2023-02-05T13:27:02;2.72;;;1.80;;
44102;SDS011;29769;42.178;24.742;2023-02-05T13:30:19;1.50;;;1.40;;
44102;SDS011;29769;42.178;24.742;2023-02-05T13:33:08;4.78;;;1.88;;
44102;SDS011;29769;42.178;24.742;2023-02-05T13:42:23;8.32;;;2.42;;
44102;SDS011;29769;42.178;24.742;2023-02-05T14:03:57;3.92;;;2.95;;
44102;SDS011;29769;42.178;24.742;2023-02-05T14:06:57;5.47;;;2.40;;
44102;SDS011;29769;42.178;24.742;2023-02-05T14:09:50;4.03;;;2.40;;
44102;SDS011;29769;42.178;24.742;2023-02-05T14:12:39;7.80;;;3.30;;
44102;SDS011;29769;42.178;24.742;2023-02-05T14:15:34;5.10;;;2.95;;
44102;SDS011;29769;42.178;24.742;2023-02-05T14:39:05;3.33;;;2.40;;
44102;SDS011;29769;42.178;24.742;2023-02-05T14:42:04;3.20;;;2.58;;
44102;SDS011;29769;42.178;24.742;2023-02-05T14:44:53;2.85;;;2.20;;
44102;SDS011;29769;42.178;24.742;2023-02-05T14:47:41;4.30;;;2.42;;
44102;SDS011;29769;42.178;24.742;2023-02-05T14:50:28;7.43;;;3.08;;
44102;SDS011;29769;42.178;24.742;2023-02-05T14:53:20;8.07;;;4.78;;
44102;SDS011;29769;42.178;24.742;2023-02-05T14:56:21;10.52;;;4.68;;
44102;SDS011;29769;42.178;24.742;2023-02-05T15:05:33;3.85;;;2.15;;
44102;SDS011;29769;42.178;24.742;2023-02-05T15:11:20;3.50;;;2.67;;
44102;SDS011;29769;42.178;24.742;2023-02-05T15:19:49;3.20;;;2.47;;
44102;SDS011;29769;42.178;24.742;2023-02-05T15:22:37;3.50;;;2.35;;
44102;SDS011;29769;42.178;24.742;2023-02-05T15:25:29;12.57;;;5.72;;
44102;SDS011;29769;42.178;24.742;2023-02-05T15:40:22;7.65;;;2.67;;
44102;SDS011;29769;42.178;24.742;2023-02-05T15:43:14;5.25;;;3.03;;
44102;SDS011;29769;42.178;24.742;2023-02-05T15:46:05;5.18;;;3.05;;
44102;SDS011;29769;42.178;24.742;2023-02-05T15:48:52;5.38;;;2.63;;
44102;SDS011;29769;42.178;24.742;2023-02-05T15:51:38;8.43;;;4.65;;
44102;SDS011;29769;42.178;24.742;2023-02-05T15:54:24;7.50;;;4.30;;
44102;SDS011;29769;42.178;24.742;2023-02-05T15:57:16;5.55;;;3.10;;
44102;SDS011;29769;42.178;24.742;2023-02-05T16:00:06;5.70;;;3.70;;
44102;SDS011;29769;42.178;24.742;2023-02-05T16:02:53;4.68;;;3.63;;
44102;SDS011;29769;42.178;24.742;2023-02-05T16:05:40;14.00;;;5.05;;
44102;SDS011;29769;42.178;24.742;2023-02-05T16:08:35;9.02;;;4.65;;
44102;SDS011;29769;42.178;24.742;2023-02-05T16:11:33;10.15;;;4.78;;
44102;SDS011;29769;42.178;24.742;2023-02-05T16:14:19;9.63;;;4.93;;
44102;SDS011;29769;42.178;24.742;2023-02-05T16:17:07;20.83;;;6.25;;
44102;SDS011;29769;42.178;24.742;2023-02-05T16:22:47;14.52;;;5.28;;
44102;SDS011;29769;42.178;24.742;2023-02-05T16:25:46;17.33;;;6.32;;
44102;SDS011;29769;42.178;24.742;2023-02-05T16:28:40;16.25;;;6.30;;
44102;SDS011;29769;42.178;24.742;2023-02-05T16:31:30;4.57;;;2.88;;
44102;SDS011;29769;42.178;24.742;2023-02-05T16:34:17;8.73;;;3.88;;
44102;SDS011;29769;42.178;24.742;2023-02-05T16:37:06;9.60;;;5.53;;
44102;SDS011;29769;42.178;24.742;2023-02-05T16:39:52;13.73;;;5.93;;
44102;SDS011;29769;42.178;24.742;2023-02-05T16:42:40;10.18;;;5.00;;
44102;SDS011;29769;42.178;24.742;2023-02-05T16:45:26;9.00;;;4.38;;
44102;SDS011;29769;42.178;24.742;2023-02-05T16:48:13;5.47;;;3.58;;
44102;SDS011;29769;42.178;24.742;2023-02-05T16:51:04;13.95;;;5.63;;
44102;SDS011;29769;42.178;24.742;2023-02-05T16:53:49;18.55;;;7.50;;
44102;SDS011;29769;42.178;24.742;2023-02-05T16:56:34;13.70;;;7.22;;
44102;SDS011;29769;42.178;24.742;2023-02-05T16:59:23;12.10;;;5.85;;
44102;SDS011;29769;42.178;24.742;2023-02-05T17:02:32;15.57;;;6.78;;
44102;SDS011;29769;42.178;24.742;2023-02-05T17:05:24;13.80;;;5.40;;
44102;SDS011;29769;42.178;24.742;2023-02-05T17:08:12;7.60;;;4.53;;
44102;SDS011;29769;42.178;24.742;2023-02-05T17:10:59;8.18;;;4.18;;
44102;SDS011;29769;42.178;24.742;2023-02-05T17:13:45;8.15;;;5.10;;
44102;SDS011;29769;42.178;24.742;2023-02-05T17:16:32;16.85;;;5.28;;
44102;SDS011;29769;42.178;24.742;2023-02-05T17:19:21;13.55;;;6.00;;
44102;SDS011;29769;42.178;24.742;2023-02-05T17:24:57;12.25;;;6.70;;
44102;SDS011;29769;42.178;24.742;2023-02-05T17:27:43;14.07;;;6.65;;
44102;SDS011;29769;42.178;24.742;2023-02-05T17:30:27;7.07;;;4.32;;
44102;SDS011;29769;42.178;24.742;2023-02-05T17:33:14;7.68;;;3.75;;
44102;SDS011;29769;42.178;24.742;2023-02-05T17:36:01;8.73;;;4.00;;
44102;SDS011;29769;42.178;24.742;2023-02-05T17:38:46;6.88;;;4.07;;
44102;SDS011;29769;42.178;24.742;2023-02-05T17:41:34;12.40;;;4.10;;
44102;SDS011;29769;42.178;24.742;2023-02-05T17:44:39;6.82;;;3.97;;
44102;SDS011;29769;42.178;24.742;2023-02-05T17:47:24;7.82;;;4.20;;
44102;SDS011;29769;42.178;24.742;2023-02-05T17:50:10;8.20;;;4.38;;
44102;SDS011;29769;42.178;24.742;2023-02-05T17:52:55;7.38;;;4.03;;
44102;SDS011;29769;42.178;24.742;2023-02-05T17:55:40;4.03;;;2.90;;
44102;SDS011;29769;42.178;24.742;2023-02-05T17:58:24;4.18;;;3.03;;
44102;SDS011;29769;42.178;24.742;2023-02-05T18:01:09;6.47;;;3.33;;
44102;SDS011;29769;42.178;24.742;2023-02-05T18:03:55;6.95;;;3.65;;
44102;SDS011;29769;42.178;24.742;2023-02-05T18:06:40;5.10;;;2.85;;
44102;SDS011;29769;42.178;24.742;2023-02-05T18:09:26;5.10;;;2.50;;
44102;SDS011;29769;42.178;24.742;2023-02-05T18:12:11;3.90;;;2.42;;
44102;SDS011;29769;42.178;24.742;2023-02-05T18:14:56;4.07;;;2.45;;
44102;SDS011;29769;42.178;24.742;2023-02-05T18:17:41;6.35;;;3.03;;
44102;SDS011;29769;42.178;24.742;2023-02-05T18:20:26;5.63;;;2.97;;
44102;SDS011;29769;42.178;24.742;2023-02-05T18:23:11;7.25;;;3.42;;
44102;SDS011;29769;42.178;24.742;2023-02-05T18:25:56;5.28;;;3.58;;
44102;SDS011;29769;42.178;24.742;2023-02-05T18:28:42;7.55;;;4.25;;
44102;SDS011;29769;42.178;24.742;2023-02-05T18:31:27;10.15;;;3.83;;
44102;SDS011;29769;42.178;24.742;2023-02-05T18:34:12;9.75;;;4.68;;
44102;SDS011;29769;42.178;24.742;2023-02-05T18:36:57;4.75;;;3.30;;
44102;SDS011;29769;42.178;24.742;2023-02-05T18:39:43;7.63;;;3.97;;
44102;SDS011;29769;42.178;24.742;2023-02-05T18:42:29;7.78;;;4.22;;
44102;SDS011;29769;42.178;24.742;2023-02-05T18:45:13;6.40;;;4.05;;
44102;SDS011;29769;42.178;24.742;2023-02-05T18:47:58;11.25;;;4.40;;
44102;SDS011;29769;42.178;24.742;2023-02-05T18:50:44;5.25;;;3.30;;
44102;SDS011;29769;42.178;24.742;2023-02-05T18:53:30;9.25;;;4.22;;
44102;SDS011;29769;42.178;24.742;2023-02-05T18:59:06;5.40;;;3.20;;
44102;SDS011;29769;42.178;24.742;2023-02-05T19:01:51;5.28;;;3.65;;
44102;SDS011;29769;42.178;24.742;2023-02-05T19:04:37;5.78;;;3.58;;
44102;SDS011;29769;42.178;24.742;2023-02-05T19:07:22;4.22;;;3.30;;
44102;SDS011;29769;42.178;24.742;2023-02-05T19:10:08;7.32;;;3.80;;
44102;SDS011;29769;42.178;24.742;2023-02-05T19:12:53;5.80;;;3.30;;
44102;SDS011;29769;42.178;24.742;2023-02-05T19:15:38;11.48;;;4.03;;
44102;SDS011;29769;42.178;24.742;2023-02-05T19:18:22;5.85;;;2.95;;
44102;SDS011;29769;42.178;24.742;2023-02-05T19:21:08;5.93;;;3.85;;
44102;SDS011;29769;42.178;24.742;2023-02-05T19:23:59;3.80;;;2.78;;
44102;SDS011;29769;42.178;24.742;2023-02-05T19:26:48;5.75;;;3.90;;
44102;SDS011;29769;42.178;24.742;2023-02-05T19:29:34;5.75;;;3.45;;
44102;SDS011;29769;42.178;24.742;2023-02-05T19:32:23;7.22;;;3.75;;
44102;SDS011;29769;42.178;24.742;2023-02-05T19:35:08;7.20;;;3.65;;
44102;SDS011;29769;42.178;24.742;2023-02-05T19:37:53;4.22;;;3.40;;
44102;SDS011;29769;42.178;24.742;2023-02-05T19:40:38;6.68;;;3.90;;
44102;SDS011;29769;42.178;24.742;2023-02-05T19:43:23;4.82;;;3.78;;
44102;SDS011;29769;42.178;24.742;2023-02-05T19:46:08;5.60;;;3.70;;
44102;SDS011;29769;42.178;24.742;2023-02-05T19:51:43;6.15;;;3.63;;
44102;SDS011;29769;42.178;24.742;2023-02-05T19:54:29;4.57;;;3.42;;
44102;SDS011;29769;42.178;24.742;2023-02-05T19:57:14;5.47;;;3.45;;